createdAt,value
2023-03-26T00:00:00.469Z,999.37
2023-03-26T00:00:32.949Z,999.39
2023-03-26T00:01:05.411Z,999.37
2023-03-26T00:01:37.890Z,999.37
2023-03-26T00:02:10.398Z,999.36
2023-03-26T00:02:42.842Z,999.32
2023-03-26T00:03:15.363Z,999.36
2023-03-26T00:03:47.743Z,999.38
2023-03-26T00:04:20.298Z,999.42
2023-03-26T00:04:52.711Z,999.43
2023-03-26T00:05:25.215Z,999.43
2023-03-26T00:05:57.646Z,999.43
2023-03-26T00:06:30.081Z,999.43
2023-03-26T00:07:02.593Z,999.43
2023-03-26T00:07:35.005Z,999.43
2023-03-26T00:08:07.544Z,999.45
2023-03-26T00:08:40.001Z,999.44
2023-03-26T00:09:12.465Z,999.44
2023-03-26T00:09:44.889Z,999.44
2023-03-26T00:10:17.394Z,999.44
2023-03-26T00:10:50.599Z,999.49
2023-03-26T00:11:23.073Z,999.46
2023-03-26T00:11:55.560Z,999.48
2023-03-26T00:12:28.039Z,999.48
2023-03-26T00:13:00.528Z,999.48
2023-03-26T00:13:33.050Z,999.48
2023-03-26T00:14:05.845Z,999.51
2023-03-26T00:14:37.981Z,999.49
2023-03-26T00:15:10.417Z,999.49
2023-03-26T00:15:42.837Z,999.48
2023-03-26T00:16:15.351Z,999.47
2023-03-26T00:16:47.875Z,999.49
2023-03-26T00:17:20.306Z,999.51
2023-03-26T00:17:52.817Z,999.49
2023-03-26T00:18:25.278Z,999.52
2023-03-26T00:18:57.844Z,999.51
2023-03-26T00:19:30.195Z,999.53
2023-03-26T00:20:02.690Z,999.51
2023-03-26T00:20:35.123Z,999.50
2023-03-26T00:21:07.564Z,999.51
2023-03-26T00:21:40.008Z,999.54
2023-03-26T00:22:12.505Z,999.52
2023-03-26T00:22:44.944Z,999.53
2023-03-26T00:23:17.440Z,999.52
2023-03-26T00:23:49.920Z,999.52
2023-03-26T00:24:23.335Z,999.55
2023-03-26T00:24:55.901Z,999.55
2023-03-26T00:25:28.376Z,999.55
2023-03-26T00:26:00.846Z,999.57
2023-03-26T00:26:33.368Z,999.56
2023-03-26T00:27:05.851Z,999.56
2023-03-26T00:27:38.329Z,999.59
2023-03-26T00:28:10.766Z,999.59
2023-03-26T00:28:43.238Z,999.60
2023-03-26T00:29:15.701Z,999.62
2023-03-26T00:29:48.177Z,999.60
2023-03-26T00:30:20.701Z,999.59
2023-03-26T00:30:53.141Z,999.56
2023-03-26T00:31:25.557Z,999.58
2023-03-26T00:31:58.001Z,999.60
2023-03-26T00:32:30.638Z,999.57
2023-03-26T00:33:03.223Z,999.58
2023-03-26T00:33:35.633Z,999.59
2023-03-26T00:34:08.118Z,999.59
2023-03-26T00:34:40.700Z,999.58
2023-03-26T00:35:13.190Z,999.57
2023-03-26T00:35:45.666Z,999.57
2023-03-26T00:36:18.180Z,999.61
2023-03-26T00:36:50.562Z,999.62
2023-03-26T00:37:23.041Z,999.60
2023-03-26T00:37:55.530Z,999.60
2023-03-26T00:38:28.009Z,999.59
2023-03-26T00:39:00.464Z,999.57
2023-03-26T00:39:32.912Z,999.59
2023-03-26T00:40:05.337Z,999.59
2023-03-26T00:40:37.789Z,999.62
2023-03-26T00:41:10.241Z,999.61
2023-03-26T00:41:42.707Z,999.61
2023-03-26T00:42:15.200Z,999.62
2023-03-26T00:42:47.671Z,999.60
2023-03-26T00:43:20.175Z,999.59
2023-03-26T00:43:52.621Z,999.59
2023-03-26T00:44:25.084Z,999.56
2023-03-26T00:44:57.569Z,999.57
2023-03-26T00:45:30.055Z,999.57
2023-03-26T00:46:02.768Z,999.55
2023-03-26T00:46:35.344Z,999.56
2023-03-26T00:47:07.798Z,999.55
2023-03-26T00:47:40.394Z,999.56
2023-03-26T00:48:12.715Z,999.54
2023-03-26T00:48:45.982Z,999.57
2023-03-26T00:49:17.712Z,999.56
2023-03-26T00:49:50.173Z,999.57
2023-03-26T00:50:22.654Z,999.57
2023-03-26T00:50:55.161Z,999.58
2023-03-26T00:51:27.678Z,999.60
2023-03-26T00:52:00.131Z,999.61
2023-03-26T00:52:32.588Z,999.60
2023-03-26T00:53:05.073Z,999.61
2023-03-26T00:53:37.532Z,999.56
2023-03-26T00:54:09.939Z,999.55
2023-03-26T00:54:42.362Z,999.58
2023-03-26T00:55:14.870Z,999.57
2023-03-26T00:55:47.325Z,999.56
2023-03-26T00:56:19.819Z,999.56
2023-03-26T00:56:52.333Z,999.55
2023-03-26T00:57:34.934Z,999.54
2023-03-26T00:57:57.290Z,999.55
2023-03-26T00:58:29.713Z,999.56
2023-03-26T00:59:02.293Z,999.55
2023-03-26T00:59:34.790Z,999.52
2023-03-26T01:00:08.224Z,999.53
2023-03-26T01:00:40.771Z,999.54
2023-03-26T01:01:13.281Z,999.56
2023-03-26T01:01:45.768Z,999.52
2023-03-26T01:02:18.239Z,999.50
2023-03-26T01:02:50.815Z,999.49
2023-03-26T01:03:27.604Z,999.49
2023-03-26T01:04:07.385Z,999.50
2023-03-26T01:04:28.620Z,999.50
2023-03-26T01:05:00.708Z,999.49
2023-03-26T01:05:33.135Z,999.45
2023-03-26T01:06:05.642Z,999.46
2023-03-26T01:06:38.081Z,999.44
2023-03-26T01:07:10.588Z,999.45
2023-03-26T01:07:43.185Z,999.44
2023-03-26T01:08:15.699Z,999.43
2023-03-26T01:08:48.252Z,999.44
2023-03-26T01:09:20.733Z,999.44
2023-03-26T01:09:53.150Z,999.41
2023-03-26T01:10:25.631Z,999.45
2023-03-26T01:10:58.073Z,999.45
2023-03-26T01:11:30.598Z,999.45
2023-03-26T01:12:03.102Z,999.44
2023-03-26T01:12:35.559Z,999.45
2023-03-26T01:13:08.018Z,999.44
2023-03-26T01:13:40.543Z,999.42
2023-03-26T01:14:12.989Z,999.42
2023-03-26T01:14:45.435Z,999.41
2023-03-26T01:15:17.930Z,999.42
2023-03-26T01:15:50.446Z,999.43
2023-03-26T01:16:22.958Z,999.41
2023-03-26T01:16:55.498Z,999.41
2023-03-26T01:17:27.957Z,999.40
2023-03-26T01:18:00.451Z,999.37
2023-03-26T01:18:32.870Z,999.37
2023-03-26T01:19:05.375Z,999.35
2023-03-26T01:19:37.837Z,999.33
2023-03-26T01:20:10.298Z,999.33
2023-03-26T01:20:42.783Z,999.31
2023-03-26T01:21:15.280Z,999.29
2023-03-26T01:21:47.749Z,999.30
2023-03-26T01:22:20.287Z,999.32
2023-03-26T01:22:52.649Z,999.31
2023-03-26T01:23:25.215Z,999.32
2023-03-26T01:23:57.706Z,999.31
2023-03-26T01:24:30.190Z,999.33
2023-03-26T01:25:02.780Z,999.31
2023-03-26T01:25:35.232Z,999.30
2023-03-26T01:26:07.729Z,999.33
2023-03-26T01:26:40.264Z,999.29
2023-03-26T01:27:12.729Z,999.30
2023-03-26T01:27:45.267Z,999.28
2023-03-26T01:28:17.778Z,999.30
2023-03-26T01:28:50.346Z,999.33
2023-03-26T01:29:22.809Z,999.31
2023-03-26T01:29:55.322Z,999.29
2023-03-26T01:30:27.750Z,999.29
2023-03-26T01:31:00.207Z,999.27
2023-03-26T01:31:32.692Z,999.27
2023-03-26T01:32:05.233Z,999.30
2023-03-26T01:32:37.805Z,999.30
2023-03-26T01:33:10.269Z,999.30
2023-03-26T01:33:42.613Z,999.31
2023-03-26T01:34:15.023Z,999.28
2023-03-26T01:34:47.483Z,999.30
2023-03-26T01:35:20.002Z,999.29
2023-03-26T01:35:52.589Z,999.28
2023-03-26T01:36:24.884Z,999.26
2023-03-26T01:36:57.322Z,999.26
2023-03-26T01:37:29.765Z,999.27
2023-03-26T01:38:02.840Z,999.27
2023-03-26T01:38:35.381Z,999.26
2023-03-26T01:39:07.864Z,999.26
2023-03-26T01:39:40.332Z,999.24
2023-03-26T01:40:12.810Z,999.25
2023-03-26T01:40:45.314Z,999.23
2023-03-26T01:41:17.782Z,999.23
2023-03-26T01:41:50.243Z,999.21
2023-03-26T01:42:22.708Z,999.24
2023-03-26T01:42:55.214Z,999.23
2023-03-26T01:43:27.725Z,999.25
2023-03-26T01:44:00.192Z,999.24
2023-03-26T01:44:32.705Z,999.24
2023-03-26T01:45:05.176Z,999.24
2023-03-26T01:45:37.620Z,999.22
2023-03-26T01:46:10.116Z,999.24
2023-03-26T01:46:42.610Z,999.23
2023-03-26T01:47:15.062Z,999.23
2023-03-26T01:47:47.595Z,999.22
2023-03-26T01:48:19.988Z,999.22
2023-03-26T01:48:52.466Z,999.21
2023-03-26T01:49:24.947Z,999.20
2023-03-26T01:49:57.439Z,999.16
2023-03-26T01:50:29.865Z,999.19
2023-03-26T01:51:02.343Z,999.20
2023-03-26T01:51:34.834Z,999.19
2023-03-26T01:52:07.308Z,999.17
2023-03-26T01:52:39.810Z,999.13
2023-03-26T01:53:12.273Z,999.14
2023-03-26T01:53:44.745Z,999.11
2023-03-26T01:54:17.185Z,999.11
2023-03-26T01:54:49.634Z,999.11
2023-03-26T01:55:22.119Z,999.10
2023-03-26T01:55:54.647Z,999.09
2023-03-26T01:56:27.124Z,999.08
2023-03-26T01:57:00.325Z,999.08
2023-03-26T01:57:32.691Z,999.07
2023-03-26T01:58:05.154Z,999.06
2023-03-26T01:58:37.582Z,999.07
2023-03-26T01:59:10.068Z,999.06
2023-03-26T01:59:42.523Z,999.07
2023-03-26T02:00:15.073Z,999.06
2023-03-26T02:00:47.580Z,999.04
2023-03-26T02:01:20.045Z,999.04
2023-03-26T02:01:52.572Z,999.04
2023-03-26T02:02:25.093Z,999.01
2023-03-26T02:02:57.502Z,999.03
2023-03-26T02:03:30.019Z,999.01
2023-03-26T02:04:02.338Z,999.01
2023-03-26T02:04:34.905Z,999.01
2023-03-26T02:05:07.357Z,998.99
2023-03-26T02:05:39.810Z,998.98
2023-03-26T02:06:12.372Z,998.98
2023-03-26T02:06:44.823Z,998.98
2023-03-26T02:07:17.309Z,998.94
2023-03-26T02:07:49.797Z,998.97
2023-03-26T02:08:22.200Z,998.96
2023-03-26T02:08:54.687Z,998.96
2023-03-26T02:09:27.121Z,998.94
2023-03-26T02:09:59.569Z,998.94
2023-03-26T02:10:32.060Z,998.92
2023-03-26T02:11:04.589Z,998.89
2023-03-26T02:11:37.058Z,998.89
2023-03-26T02:12:09.510Z,998.88
2023-03-26T02:12:42.004Z,998.87
2023-03-26T02:13:14.462Z,998.85
2023-03-26T02:13:46.938Z,998.84
2023-03-26T02:14:19.382Z,998.83
2023-03-26T02:14:51.864Z,998.81
2023-03-26T02:15:24.328Z,998.81
2023-03-26T02:15:57.073Z,998.80
2023-03-26T02:16:29.366Z,998.80
2023-03-26T02:17:01.862Z,998.81
2023-03-26T02:17:34.378Z,998.82
2023-03-26T02:18:06.819Z,998.83
2023-03-26T02:18:39.345Z,998.81
2023-03-26T02:19:11.782Z,998.80
2023-03-26T02:19:44.274Z,998.81
2023-03-26T02:20:16.744Z,998.82
2023-03-26T02:20:49.270Z,998.82
2023-03-26T02:21:21.777Z,998.82
2023-03-26T02:21:54.201Z,998.82
2023-03-26T02:22:26.686Z,998.81
2023-03-26T02:22:59.127Z,998.79
2023-03-26T02:23:31.602Z,998.78
2023-03-26T02:24:04.283Z,998.78
2023-03-26T02:24:36.639Z,998.79
2023-03-26T02:25:09.173Z,998.80
2023-03-26T02:25:41.658Z,998.77
2023-03-26T02:26:14.118Z,998.76
2023-03-26T02:26:46.610Z,998.74
2023-03-26T02:27:19.055Z,998.76
2023-03-26T02:27:51.521Z,998.73
2023-03-26T02:28:23.975Z,998.70
2023-03-26T02:28:56.502Z,998.70
2023-03-26T02:29:28.987Z,998.69
2023-03-26T02:30:01.543Z,998.68
2023-03-26T02:30:33.990Z,998.65
2023-03-26T02:31:06.470Z,998.65
2023-03-26T02:31:38.962Z,998.65
2023-03-26T02:32:11.420Z,998.63
2023-03-26T02:32:43.998Z,998.63
2023-03-26T02:33:16.321Z,998.63
2023-03-26T02:33:48.842Z,998.63
2023-03-26T02:34:21.364Z,998.62
2023-03-26T02:34:53.899Z,998.61
2023-03-26T02:35:26.514Z,998.60
2023-03-26T02:35:59.178Z,998.60
2023-03-26T02:36:31.485Z,998.61
2023-03-26T02:37:04.022Z,998.59
2023-03-26T02:37:36.519Z,998.57
2023-03-26T02:38:09.041Z,998.57
2023-03-26T02:38:41.532Z,998.57
2023-03-26T02:39:14.097Z,998.57
2023-03-26T02:39:46.576Z,998.54
2023-03-26T02:40:19.034Z,998.54
2023-03-26T02:40:51.716Z,998.54
2023-03-26T02:41:24.192Z,998.54
2023-03-26T02:41:56.680Z,998.55
2023-03-26T02:42:29.109Z,998.54
2023-03-26T02:43:01.556Z,998.52
2023-03-26T02:43:34.160Z,998.52
2023-03-26T02:44:06.601Z,998.51
2023-03-26T02:44:39.073Z,998.51
2023-03-26T02:45:11.554Z,998.51
2023-03-26T02:45:44.090Z,998.50
2023-03-26T02:46:16.620Z,998.51
2023-03-26T02:46:49.067Z,998.49
2023-03-26T02:47:21.547Z,998.49
2023-03-26T02:47:54.097Z,998.49
2023-03-26T02:48:26.488Z,998.48
2023-03-26T02:48:58.921Z,998.47
2023-03-26T02:49:31.416Z,998.46
2023-03-26T02:50:03.903Z,998.45
2023-03-26T02:50:36.410Z,998.44
2023-03-26T02:51:08.992Z,998.43
2023-03-26T02:51:41.587Z,998.42
2023-03-26T02:52:14.050Z,998.42
2023-03-26T02:52:46.529Z,998.42
2023-03-26T02:53:19.021Z,998.42
2023-03-26T02:53:51.490Z,998.42
2023-03-26T02:54:24.003Z,998.41
2023-03-26T02:54:56.583Z,998.42
2023-03-26T02:55:29.051Z,998.45
2023-03-26T02:56:01.564Z,998.45
2023-03-26T02:56:34.157Z,998.44
2023-03-26T02:57:06.593Z,998.43
2023-03-26T02:57:38.997Z,998.42
2023-03-26T02:58:11.457Z,998.42
2023-03-26T02:58:43.938Z,998.41
2023-03-26T02:59:16.491Z,998.40
2023-03-26T02:59:49.089Z,998.40
2023-03-26T03:00:21.580Z,998.40
2023-03-26T03:00:54.186Z,998.38
2023-03-26T03:01:26.618Z,998.38
2023-03-26T03:01:59.107Z,998.37
2023-03-26T03:02:31.554Z,998.36
2023-03-26T03:03:04.016Z,998.34
2023-03-26T03:03:36.396Z,998.34
2023-03-26T03:04:08.825Z,998.33
2023-03-26T03:04:41.327Z,998.31
2023-03-26T03:05:13.780Z,998.31
2023-03-26T03:05:46.300Z,998.30
2023-03-26T03:06:18.777Z,998.28
2023-03-26T03:06:51.243Z,998.28
2023-03-26T03:07:23.822Z,998.27
2023-03-26T03:07:56.280Z,998.25
2023-03-26T03:08:36.300Z,998.24
2023-03-26T03:09:08.785Z,998.23
2023-03-26T03:09:41.245Z,998.24
2023-03-26T03:10:13.691Z,998.24
2023-03-26T03:10:46.170Z,998.23
2023-03-26T03:11:18.644Z,998.21
2023-03-26T03:11:51.122Z,998.23
2023-03-26T03:12:23.645Z,998.24
2023-03-26T03:12:56.068Z,998.23
2023-03-26T03:13:28.572Z,998.24
2023-03-26T03:14:00.994Z,998.24
2023-03-26T03:14:33.484Z,998.25
2023-03-26T03:15:05.972Z,998.25
2023-03-26T03:15:38.457Z,998.27
2023-03-26T03:16:11.054Z,998.28
2023-03-26T03:16:43.577Z,998.30
2023-03-26T03:17:15.993Z,998.29
2023-03-26T03:17:48.465Z,998.28
2023-03-26T03:18:20.877Z,998.27
2023-03-26T03:18:53.322Z,998.26
2023-03-26T03:19:25.798Z,998.28
2023-03-26T03:19:58.265Z,998.26
2023-03-26T03:20:30.809Z,998.26
2023-03-26T03:21:03.219Z,998.25
2023-03-26T03:21:35.739Z,998.26
2023-03-26T03:22:08.167Z,998.25
2023-03-26T03:22:40.619Z,998.24
2023-03-26T03:23:13.057Z,998.23
2023-03-26T03:23:45.530Z,998.21
2023-03-26T03:24:18.010Z,998.23
2023-03-26T03:24:50.441Z,998.21
2023-03-26T03:25:22.993Z,998.20
2023-03-26T03:25:55.572Z,998.22
2023-03-26T03:26:27.929Z,998.20
2023-03-26T03:27:00.385Z,998.18
2023-03-26T03:27:32.835Z,998.19
2023-03-26T03:28:05.272Z,998.18
2023-03-26T03:28:37.749Z,998.18
2023-03-26T03:29:10.112Z,998.19
2023-03-26T03:29:42.532Z,998.17
2023-03-26T03:30:14.956Z,998.18
2023-03-26T03:30:47.418Z,998.18
2023-03-26T03:31:19.816Z,998.17
2023-03-26T03:31:52.310Z,998.17
2023-03-26T03:32:24.890Z,998.16
2023-03-26T03:32:57.304Z,998.16
2023-03-26T03:33:29.751Z,998.16
2023-03-26T03:34:02.201Z,998.14
2023-03-26T03:34:34.620Z,998.15
2023-03-26T03:35:07.032Z,998.13
2023-03-26T03:35:39.472Z,998.13
2023-03-26T03:36:20.377Z,998.13
2023-03-26T03:36:44.310Z,998.15
2023-03-26T03:37:16.738Z,998.14
2023-03-26T03:37:49.240Z,998.13
2023-03-26T03:38:21.667Z,998.12
2023-03-26T03:38:54.124Z,998.11
2023-03-26T03:39:26.582Z,998.09
2023-03-26T03:39:59.030Z,998.12
2023-03-26T03:40:31.496Z,998.12
2023-03-26T03:41:03.970Z,998.12
2023-03-26T03:41:36.426Z,998.10
2023-03-26T03:42:08.885Z,998.13
2023-03-26T03:42:41.421Z,998.12
2023-03-26T03:43:13.846Z,998.11
2023-03-26T03:43:46.299Z,998.11
2023-03-26T03:44:18.758Z,998.11
2023-03-26T03:44:51.192Z,998.10
2023-03-26T03:45:23.782Z,998.09
2023-03-26T03:45:56.471Z,998.09
2023-03-26T03:46:28.717Z,998.09
2023-03-26T03:47:01.129Z,998.10
2023-03-26T03:47:33.653Z,998.09
2023-03-26T03:48:06.166Z,998.07
2023-03-26T03:48:38.614Z,998.08
2023-03-26T03:49:11.074Z,998.06
2023-03-26T03:49:43.532Z,998.05
2023-03-26T03:50:15.942Z,998.03
2023-03-26T03:50:48.410Z,998.04
2023-03-26T03:51:20.865Z,998.04
2023-03-26T03:51:53.289Z,998.03
2023-03-26T03:52:25.748Z,998.03
2023-03-26T03:52:58.236Z,998.03
2023-03-26T03:53:30.696Z,998.01
2023-03-26T03:54:03.150Z,998.00
2023-03-26T03:54:35.594Z,997.96
2023-03-26T03:55:08.055Z,997.96
2023-03-26T03:55:40.513Z,997.97
2023-03-26T03:56:12.964Z,997.97
2023-03-26T03:56:45.441Z,997.95
2023-03-26T03:57:17.931Z,997.96
2023-03-26T03:57:50.362Z,997.94
2023-03-26T03:58:22.839Z,997.93
2023-03-26T03:58:55.330Z,997.92
2023-03-26T03:59:27.774Z,997.91
2023-03-26T04:00:00.220Z,997.92
2023-03-26T04:00:32.706Z,997.88
2023-03-26T04:01:05.171Z,997.88
2023-03-26T04:01:37.623Z,997.86
2023-03-26T04:02:10.146Z,997.84
2023-03-26T04:02:42.744Z,997.82
2023-03-26T04:03:15.010Z,997.81
2023-03-26T04:03:47.645Z,997.84
2023-03-26T04:04:19.939Z,997.82
2023-03-26T04:04:52.351Z,997.82
2023-03-26T04:05:24.800Z,997.81
2023-03-26T04:05:57.272Z,997.82
2023-03-26T04:06:29.665Z,997.83
2023-03-26T04:07:02.160Z,997.81
2023-03-26T04:07:34.608Z,997.80
2023-03-26T04:08:07.031Z,997.80
2023-03-26T04:08:39.483Z,997.80
2023-03-26T04:09:11.920Z,997.84
2023-03-26T04:09:44.335Z,997.78
2023-03-26T04:10:16.839Z,997.78
2023-03-26T04:10:49.263Z,997.77
2023-03-26T04:11:21.717Z,997.77
2023-03-26T04:11:54.252Z,997.78
2023-03-26T04:12:26.693Z,997.76
2023-03-26T04:12:59.165Z,997.76
2023-03-26T04:13:31.632Z,997.76
2023-03-26T04:14:04.117Z,997.74
2023-03-26T04:14:36.607Z,997.74
2023-03-26T04:15:09.067Z,997.74
2023-03-26T04:15:41.545Z,997.74
2023-03-26T04:16:13.970Z,997.78
2023-03-26T04:16:46.407Z,997.74
2023-03-26T04:17:18.849Z,997.74
2023-03-26T04:17:51.314Z,997.74
2023-03-26T04:18:23.804Z,997.75
2023-03-26T04:18:56.315Z,997.74
2023-03-26T04:19:28.750Z,997.72
2023-03-26T04:20:01.217Z,997.76
2023-03-26T04:20:33.670Z,997.72
2023-03-26T04:21:06.119Z,997.73
2023-03-26T04:21:38.553Z,997.70
2023-03-26T04:22:11.012Z,997.73
2023-03-26T04:22:43.474Z,997.73
2023-03-26T04:23:15.934Z,997.72
2023-03-26T04:23:48.368Z,997.73
2023-03-26T04:24:20.822Z,997.72
2023-03-26T04:24:53.260Z,997.72
2023-03-26T04:25:25.788Z,997.72
2023-03-26T04:25:58.243Z,997.69
2023-03-26T04:26:30.670Z,997.68
2023-03-26T04:27:03.113Z,997.67
2023-03-26T04:27:35.558Z,997.68
2023-03-26T04:28:07.992Z,997.67
2023-03-26T04:28:40.408Z,997.67
2023-03-26T04:29:12.878Z,997.67
2023-03-26T04:29:45.299Z,997.67
2023-03-26T04:30:17.718Z,997.64
2023-03-26T04:30:50.217Z,997.62
2023-03-26T04:31:22.693Z,997.62
2023-03-26T04:31:55.132Z,997.64
2023-03-26T04:32:27.565Z,997.62
2023-03-26T04:33:00.153Z,997.62
2023-03-26T04:33:33.895Z,997.61
2023-03-26T04:34:06.434Z,997.62
2023-03-26T04:34:38.921Z,997.60
2023-03-26T04:35:11.448Z,997.61
2023-03-26T04:35:43.923Z,997.62
2023-03-26T04:36:16.332Z,997.62
2023-03-26T04:36:48.790Z,997.59
2023-03-26T04:37:21.276Z,997.62
2023-03-26T04:37:53.739Z,997.62
2023-03-26T04:38:26.158Z,997.58
2023-03-26T04:38:58.669Z,997.61
2023-03-26T04:39:31.063Z,997.62
2023-03-26T04:40:03.544Z,997.60
2023-03-26T04:40:36.011Z,997.60
2023-03-26T04:41:08.448Z,997.60
2023-03-26T04:41:40.921Z,997.59
2023-03-26T04:42:13.382Z,997.62
2023-03-26T04:42:45.824Z,997.60
2023-03-26T04:43:18.262Z,997.58
2023-03-26T04:43:50.825Z,997.58
2023-03-26T04:44:23.133Z,997.56
2023-03-26T04:44:55.591Z,997.55
2023-03-26T04:45:28.037Z,997.53
2023-03-26T04:46:00.534Z,997.56
2023-03-26T04:46:33.029Z,997.56
2023-03-26T04:47:05.412Z,997.55
2023-03-26T04:47:37.880Z,997.56
2023-03-26T04:48:10.337Z,997.58
2023-03-26T04:48:42.784Z,997.56
2023-03-26T04:49:15.230Z,997.55
2023-03-26T04:49:47.680Z,997.56
2023-03-26T04:50:20.136Z,997.57
2023-03-26T04:50:52.606Z,997.56
2023-03-26T04:51:25.049Z,997.56
2023-03-26T04:51:57.498Z,997.53
2023-03-26T04:52:29.920Z,997.54
2023-03-26T04:53:02.386Z,997.53
2023-03-26T04:53:34.880Z,997.51
2023-03-26T04:54:07.375Z,997.53
2023-03-26T04:54:39.813Z,997.51
2023-03-26T04:55:12.263Z,997.49
2023-03-26T04:55:44.731Z,997.52
2023-03-26T04:56:17.161Z,997.49
2023-03-26T04:56:49.687Z,997.48
2023-03-26T04:57:22.075Z,997.47
2023-03-26T04:57:54.528Z,997.45
2023-03-26T04:58:26.938Z,997.46
2023-03-26T04:58:59.414Z,997.47
2023-03-26T04:59:31.840Z,997.46
2023-03-26T05:00:04.301Z,997.46
2023-03-26T05:00:36.821Z,997.45
2023-03-26T05:01:10.196Z,997.47
2023-03-26T05:01:41.835Z,997.46
2023-03-26T05:02:14.229Z,997.44
2023-03-26T05:02:46.853Z,997.46
2023-03-26T05:03:19.259Z,997.45
2023-03-26T05:03:51.713Z,997.44
2023-03-26T05:04:24.151Z,997.39
2023-03-26T05:04:56.547Z,997.39
2023-03-26T05:05:28.999Z,997.41
2023-03-26T05:06:01.460Z,997.39
2023-03-26T05:06:33.921Z,997.38
2023-03-26T05:07:06.381Z,997.37
2023-03-26T05:07:38.847Z,997.37
2023-03-26T05:08:11.294Z,997.37
2023-03-26T05:08:43.718Z,997.38
2023-03-26T05:09:16.153Z,997.39
2023-03-26T05:09:48.570Z,997.38
2023-03-26T05:10:21.063Z,997.37
2023-03-26T05:10:53.793Z,997.37
2023-03-26T05:11:25.883Z,997.38
2023-03-26T05:11:58.327Z,997.36
2023-03-26T05:12:30.811Z,997.37
2023-03-26T05:13:03.276Z,997.38
2023-03-26T05:13:35.795Z,997.35
2023-03-26T05:14:08.262Z,997.36
2023-03-26T05:14:40.704Z,997.34
2023-03-26T05:15:13.169Z,997.33
2023-03-26T05:15:45.628Z,997.31
2023-03-26T05:16:18.107Z,997.32
2023-03-26T05:16:50.592Z,997.31
2023-03-26T05:17:23.028Z,997.31
2023-03-26T05:17:55.620Z,997.30
2023-03-26T05:18:27.960Z,997.29
2023-03-26T05:19:00.426Z,997.29
2023-03-26T05:19:32.894Z,997.27
2023-03-26T05:20:05.336Z,997.25
2023-03-26T05:20:37.816Z,997.25
2023-03-26T05:21:10.260Z,997.23
2023-03-26T05:21:42.700Z,997.21
2023-03-26T05:22:15.157Z,997.22
2023-03-26T05:22:47.575Z,997.21
2023-03-26T05:23:20.036Z,997.19
2023-03-26T05:23:52.482Z,997.19
2023-03-26T05:24:24.935Z,997.19
2023-03-26T05:24:57.359Z,997.18
2023-03-26T05:25:29.826Z,997.19
2023-03-26T05:26:09.551Z,997.18
2023-03-26T05:26:49.029Z,997.20
2023-03-26T05:27:28.556Z,997.20
2023-03-26T05:28:01.023Z,997.20
2023-03-26T05:28:33.523Z,997.19
2023-03-26T05:29:06.019Z,997.19
2023-03-26T05:29:38.461Z,997.17
2023-03-26T05:30:10.939Z,997.17
2023-03-26T05:30:43.443Z,997.16
2023-03-26T05:31:15.887Z,997.13
2023-03-26T05:31:48.432Z,997.13
2023-03-26T05:32:20.782Z,997.12
2023-03-26T05:32:53.311Z,997.10
2023-03-26T05:33:25.774Z,997.08
2023-03-26T05:33:58.228Z,997.09
2023-03-26T05:34:30.626Z,997.08
2023-03-26T05:35:03.073Z,997.09
2023-03-26T05:35:35.546Z,997.07
2023-03-26T05:36:08.098Z,997.07
2023-03-26T05:36:40.577Z,997.04
2023-03-26T05:37:13.059Z,997.06
2023-03-26T05:37:45.565Z,997.05
2023-03-26T05:38:18.049Z,997.05
2023-03-26T05:38:50.536Z,997.05
2023-03-26T05:39:23.004Z,997.05
2023-03-26T05:39:55.442Z,997.06
2023-03-26T05:40:35.476Z,997.06
2023-03-26T05:41:07.988Z,997.05
2023-03-26T05:41:40.393Z,997.06
2023-03-26T05:42:12.878Z,997.06
2023-03-26T05:42:45.363Z,997.06
2023-03-26T05:43:17.802Z,997.06
2023-03-26T05:43:50.252Z,997.07
2023-03-26T05:44:22.771Z,997.06
2023-03-26T05:44:55.182Z,997.04
2023-03-26T05:45:27.645Z,997.04
2023-03-26T05:46:00.165Z,997.05
2023-03-26T05:46:32.585Z,997.05
2023-03-26T05:47:05.049Z,997.05
2023-03-26T05:47:37.530Z,997.04
2023-03-26T05:48:09.965Z,997.04
2023-03-26T05:48:42.356Z,997.02
2023-03-26T05:49:14.776Z,997.01
2023-03-26T05:49:47.277Z,997.01
2023-03-26T05:50:19.751Z,997.01
2023-03-26T05:50:52.233Z,997.01
2023-03-26T05:51:24.594Z,997.01
2023-03-26T05:51:57.132Z,997.01
2023-03-26T05:52:29.667Z,997.01
2023-03-26T05:53:02.108Z,997.01
2023-03-26T05:53:34.637Z,997.01
2023-03-26T05:54:07.181Z,997.04
2023-03-26T05:54:39.680Z,997.02
2023-03-26T05:55:12.151Z,997.02
2023-03-26T05:55:44.616Z,997.03
2023-03-26T05:56:17.049Z,997.03
2023-03-26T05:56:49.561Z,997.02
2023-03-26T05:57:21.940Z,997.03
2023-03-26T05:57:54.377Z,997.02
2023-03-26T05:58:26.781Z,997.01
2023-03-26T05:58:59.238Z,997.00
2023-03-26T05:59:31.725Z,997.00
2023-03-26T06:00:04.186Z,996.98
2023-03-26T06:00:36.646Z,996.97
2023-03-26T06:01:09.089Z,996.95
2023-03-26T06:01:41.569Z,996.95
2023-03-26T06:02:14.045Z,996.93
2023-03-26T06:02:46.517Z,996.93
2023-03-26T06:03:19.112Z,996.92
2023-03-26T06:03:51.655Z,996.91
2023-03-26T06:04:24.145Z,996.90
2023-03-26T06:04:56.500Z,996.91
2023-03-26T06:05:28.869Z,996.88
2023-03-26T06:06:01.329Z,996.87
2023-03-26T06:06:33.760Z,996.86
2023-03-26T06:07:06.180Z,996.85
2023-03-26T06:07:38.664Z,996.83
2023-03-26T06:08:11.118Z,996.81
2023-03-26T06:08:43.559Z,996.81
2023-03-26T06:09:16.019Z,996.80
2023-03-26T06:09:48.515Z,996.80
2023-03-26T06:10:20.969Z,996.78
2023-03-26T06:10:53.718Z,996.78
2023-03-26T06:11:25.983Z,996.77
2023-03-26T06:11:58.606Z,996.77
2023-03-26T06:12:31.169Z,996.77
2023-03-26T06:13:03.610Z,996.75
2023-03-26T06:13:36.093Z,996.75
2023-03-26T06:14:08.523Z,996.75
2023-03-26T06:14:40.967Z,996.74
2023-03-26T06:15:13.410Z,996.72
2023-03-26T06:15:45.967Z,996.72
2023-03-26T06:16:26.551Z,996.73
2023-03-26T06:16:50.899Z,996.71
2023-03-26T06:17:23.333Z,996.72
2023-03-26T06:17:55.952Z,996.68
2023-03-26T06:18:28.427Z,996.67
2023-03-26T06:19:00.950Z,996.69
2023-03-26T06:19:33.384Z,996.69
2023-03-26T06:20:07.438Z,996.68
2023-03-26T06:20:38.329Z,996.67
2023-03-26T06:21:10.824Z,996.66
2023-03-26T06:21:43.300Z,996.65
2023-03-26T06:22:15.836Z,996.64
2023-03-26T06:22:48.271Z,996.62
2023-03-26T06:23:20.700Z,996.60
2023-03-26T06:23:53.203Z,996.59
2023-03-26T06:24:25.615Z,996.58
2023-03-26T06:24:58.054Z,996.57
2023-03-26T06:25:30.480Z,996.58
2023-03-26T06:26:02.915Z,996.57
2023-03-26T06:26:35.367Z,996.56
2023-03-26T06:27:07.832Z,996.57
2023-03-26T06:27:40.286Z,996.56
2023-03-26T06:28:12.764Z,996.55
2023-03-26T06:28:45.209Z,996.56
2023-03-26T06:29:17.660Z,996.53
2023-03-26T06:29:50.185Z,996.51
2023-03-26T06:30:22.672Z,996.50
2023-03-26T06:30:55.345Z,996.49
2023-03-26T06:31:27.657Z,996.48
2023-03-26T06:32:12.367Z,996.47
2023-03-26T06:32:32.618Z,996.49
2023-03-26T06:33:05.136Z,996.47
2023-03-26T06:33:44.820Z,996.47
2023-03-26T06:34:17.279Z,996.45
2023-03-26T06:34:49.766Z,996.47
2023-03-26T06:35:22.232Z,996.48
2023-03-26T06:35:54.743Z,996.47
2023-03-26T06:36:27.166Z,996.47
2023-03-26T06:36:59.619Z,996.47
2023-03-26T06:37:32.059Z,996.45
2023-03-26T06:38:04.521Z,996.46
2023-03-26T06:38:36.971Z,996.46
2023-03-26T06:39:09.468Z,996.45
2023-03-26T06:39:41.968Z,996.46
2023-03-26T06:40:15.895Z,996.46
2023-03-26T06:40:46.907Z,996.47
2023-03-26T06:41:19.368Z,996.46
2023-03-26T06:41:51.826Z,996.45
2023-03-26T06:43:06.858Z,996.48
2023-03-26T06:43:09.374Z,996.49
2023-03-26T06:43:29.261Z,996.48
2023-03-26T06:44:01.704Z,996.48
2023-03-26T06:44:34.155Z,996.50
2023-03-26T06:45:06.614Z,996.48
2023-03-26T06:45:39.058Z,996.50